sensor_id;sensor_type;location;lat;lon;timestamp;temperature;humidity
1083;DHT22;530;51.448;7.238;2023-05-07T00:00:00;15.60;99.90
1083;DHT22;530;51.448;7.238;2023-05-07T00:02:26;15.60;99.90
1083;DHT22;530;51.448;7.238;2023-05-07T00:04:52;15.60;99.90
1083;DHT22;530;51.448;7.238;2023-05-07T00:07:18;15.60;99.90
1083;DHT22;530;51.448;7.238;2023-05-07T00:09:43;15.60;99.90
1083;DHT22;530;51.448;7.238;2023-05-07T00:12:10;15.60;99.90
1083;DHT22;530;51.448;7.238;2023-05-07T00:14:35;15.60;99.90
1083;DHT22;530;51.448;7.238;2023-05-07T00:17:01;15.50;99.90
1083;DHT22;530;51.448;7.238;2023-05-07T00:19:27;15.50;99.90
1083;DHT22;530;51.448;7.238;2023-05-07T00:21:53;15.50;99.90
1083;DHT22;530;51.448;7.238;2023-05-07T00:24:22;15.50;99.90
1083;DHT22;530;51.448;7.238;2023-05-07T00:26:47;15.50;99.90
1083;DHT22;530;51.448;7.238;2023-05-07T00:29:13;15.40;99.90
1083;DHT22;530;51.448;7.238;2023-05-07T00:31:39;15.40;99.90
1083;DHT22;530;51.448;7.238;2023-05-07T00:34:05;15.50;99.90
1083;DHT22;530;51.448;7.238;2023-05-07T00:36:31;15.50;99.90
1083;DHT22;530;51.448;7.238;2023-05-07T00:38:59;15.40;99.90
1083;DHT22;530;51.448;7.238;2023-05-07T00:41:26;15.50;99.90
1083;DHT22;530;51.448;7.238;2023-05-07T00:43:52;15.50;99.90
1083;DHT22;530;51.448;7.238;2023-05-07T00:46:20;15.40;99.90
1083;DHT22;530;51.448;7.238;2023-05-07T00:48:47;15.50;99.90
1083;DHT22;530;51.448;7.238;2023-05-07T00:51:13;15.50;99.90
1083;DHT22;530;51.448;7.238;2023-05-07T00:53:39;15.50;99.90
1083;DHT22;530;51.448;7.238;2023-05-07T00:56:05;15.50;99.90
1083;DHT22;530;51.448;7.238;2023-05-07T00:58:32;15.50;99.90
1083;DHT22;530;51.448;7.238;2023-05-07T01:00:59;15.50;99.90
1083;DHT22;530;51.448;7.238;2023-05-07T01:03:24;15.50;99.90
1083;DHT22;530;51.448;7.238;2023-05-07T01:05:53;15.50;99.90
1083;DHT22;530;51.448;7.238;2023-05-07T01:08:20;15.60;99.90
1083;DHT22;530;51.448;7.238;2023-05-07T01:10:47;15.60;99.90
1083;DHT22;530;51.448;7.238;2023-05-07T01:13:14;15.60;99.90
1083;DHT22;530;51.448;7.238;2023-05-07T01:15:39;15.60;99.90
1083;DHT22;530;51.448;7.238;2023-05-07T01:18:08;15.60;99.90
1083;DHT22;530;51.448;7.238;2023-05-07T01:20:33;15.60;99.90
1083;DHT22;530;51.448;7.238;2023-05-07T01:23:00;15.50;99.90
1083;DHT22;530;51.448;7.238;2023-05-07T01:25:26;15.50;99.90
1083;DHT22;530;51.448;7.238;2023-05-07T01:27:52;15.50;99.90
1083;DHT22;530;51.448;7.238;2023-05-07T01:30:19;15.40;99.90
1083;DHT22;530;51.448;7.238;2023-05-07T01:33:14;15.50;99.90
1083;DHT22;530;51.448;7.238;2023-05-07T01:35:42;15.40;99.90
1083;DHT22;530;51.448;7.238;2023-05-07T01:38:10;15.40;99.90
1083;DHT22;530;51.448;7.238;2023-05-07T01:40:36;15.40;99.90
1083;DHT22;530;51.448;7.238;2023-05-07T01:43:03;15.30;99.90
1083;DHT22;530;51.448;7.238;2023-05-07T01:45:30;15.30;99.90
1083;DHT22;530;51.448;7.238;2023-05-07T01:47:57;15.30;99.90
1083;DHT22;530;51.448;7.238;2023-05-07T01:50:23;15.30;99.90
1083;DHT22;530;51.448;7.238;2023-05-07T01:52:50;15.30;99.90
1083;DHT22;530;51.448;7.238;2023-05-07T01:55:16;15.30;99.90
1083;DHT22;530;51.448;7.238;2023-05-07T01:57:42;15.30;99.90
1083;DHT22;530;51.448;7.238;2023-05-07T02:00:08;15.30;99.90
1083;DHT22;530;51.448;7.238;2023-05-07T02:02:34;15.30;99.90
1083;DHT22;530;51.448;7.238;2023-05-07T02:05:00;15.20;99.90
1083;DHT22;530;51.448;7.238;2023-05-07T02:07:27;15.20;99.90
1083;DHT22;530;51.448;7.238;2023-05-07T02:09:53;15.30;99.90
1083;DHT22;530;51.448;7.238;2023-05-07T02:12:20;15.20;99.90
1083;DHT22;530;51.448;7.238;2023-05-07T02:14:46;15.20;99.90
1083;DHT22;530;51.448;7.238;2023-05-07T02:17:12;15.30;99.90
1083;DHT22;530;51.448;7.238;2023-05-07T02:19:38;15.30;99.90
1083;DHT22;530;51.448;7.238;2023-05-07T02:22:03;15.30;99.90
1083;DHT22;530;51.448;7.238;2023-05-07T02:24:29;15.20;99.90
1083;DHT22;530;51.448;7.238;2023-05-07T02:26:55;15.20;99.90
1083;DHT22;530;51.448;7.238;2023-05-07T02:29:21;15.20;99.90
1083;DHT22;530;51.448;7.238;2023-05-07T02:31:46;15.20;99.90
1083;DHT22;530;51.448;7.238;2023-05-07T02:34:19;15.20;99.90
1083;DHT22;530;51.448;7.238;2023-05-07T02:36:45;15.20;99.90
1083;DHT22;530;51.448;7.238;2023-05-07T02:39:12;15.20;99.90
1083;DHT22;530;51.448;7.238;2023-05-07T02:41:38;15.20;99.90
1083;DHT22;530;51.448;7.238;2023-05-07T02:44:04;15.10;99.90
1083;DHT22;530;51.448;7.238;2023-05-07T02:46:29;15.10;99.90
1083;DHT22;530;51.448;7.238;2023-05-07T02:48:55;15.10;99.90
1083;DHT22;530;51.448;7.238;2023-05-07T02:51:22;15.10;99.90
1083;DHT22;530;51.448;7.238;2023-05-07T02:53:48;15.10;99.90
1083;DHT22;530;51.448;7.238;2023-05-07T02:56:14;15.00;99.90
1083;DHT22;530;51.448;7.238;2023-05-07T02:58:39;15.10;99.90
1083;DHT22;530;51.448;7.238;2023-05-07T03:01:06;15.10;99.90
1083;DHT22;530;51.448;7.238;2023-05-07T03:03:32;15.00;99.90
1083;DHT22;530;51.448;7.238;2023-05-07T03:05:57;15.00;99.90
1083;DHT22;530;51.448;7.238;2023-05-07T03:08:23;15.00;99.90
1083;DHT22;530;51.448;7.238;2023-05-07T03:10:49;15.00;99.90
1083;DHT22;530;51.448;7.238;2023-05-07T03:13:15;14.90;99.90
1083;DHT22;530;51.448;7.238;2023-05-07T03:15:40;14.90;99.90
1083;DHT22;530;51.448;7.238;2023-05-07T03:18:06;14.90;99.90
1083;DHT22;530;51.448;7.238;2023-05-07T03:20:32;14.80;99.90
1083;DHT22;530;51.448;7.238;2023-05-07T03:22:58;14.80;99.90
1083;DHT22;530;51.448;7.238;2023-05-07T03:25:23;14.80;99.90
1083;DHT22;530;51.448;7.238;2023-05-07T03:27:49;14.80;99.90
1083;DHT22;530;51.448;7.238;2023-05-07T03:30:15;14.80;99.90
1083;DHT22;530;51.448;7.238;2023-05-07T03:32:40;14.80;99.90
1083;DHT22;530;51.448;7.238;2023-05-07T03:35:06;14.80;99.90
1083;DHT22;530;51.448;7.238;2023-05-07T03:37:32;14.80;99.90
1083;DHT22;530;51.448;7.238;2023-05-07T03:39:58;14.80;99.90
1083;DHT22;530;51.448;7.238;2023-05-07T03:42:24;14.80;99.90
1083;DHT22;530;51.448;7.238;2023-05-07T03:44:50;14.80;99.90
1083;DHT22;530;51.448;7.238;2023-05-07T03:47:15;14.90;99.90
1083;DHT22;530;51.448;7.238;2023-05-07T03:49:41;14.80;99.90
1083;DHT22;530;51.448;7.238;2023-05-07T03:52:07;14.80;99.90
1083;DHT22;530;51.448;7.238;2023-05-07T03:54:32;14.80;99.90
1083;DHT22;530;51.448;7.238;2023-05-07T03:56:58;14.80;99.90
1083;DHT22;530;51.448;7.238;2023-05-07T03:59:24;14.80;99.90
1083;DHT22;530;51.448;7.238;2023-05-07T04:01:49;14.90;99.90
1083;DHT22;530;51.448;7.238;2023-05-07T04:04:15;14.80;99.90
1083;DHT22;530;51.448;7.238;2023-05-07T04:06:41;14.80;99.90
1083;DHT22;530;51.448;7.238;2023-05-07T04:09:07;14.80;99.90
1083;DHT22;530;51.448;7.238;2023-05-07T04:11:33;14.90;99.90
1083;DHT22;530;51.448;7.238;2023-05-07T04:13:58;14.80;99.90
1083;DHT22;530;51.448;7.238;2023-05-07T04:16:24;14.80;99.90
1083;DHT22;530;51.448;7.238;2023-05-07T04:18:50;14.80;99.90
1083;DHT22;530;51.448;7.238;2023-05-07T04:21:20;14.80;99.90
1083;DHT22;530;51.448;7.238;2023-05-07T04:23:49;14.80;99.90
1083;DHT22;530;51.448;7.238;2023-05-07T04:26:15;14.80;99.90
1083;DHT22;530;51.448;7.238;2023-05-07T04:28:41;14.80;99.90
1083;DHT22;530;51.448;7.238;2023-05-07T04:31:07;14.80;99.90
1083;DHT22;530;51.448;7.238;2023-05-07T04:33:33;14.90;99.90
1083;DHT22;530;51.448;7.238;2023-05-07T04:36:01;14.90;99.90
1083;DHT22;530;51.448;7.238;2023-05-07T04:38:30;14.90;99.90
1083;DHT22;530;51.448;7.238;2023-05-07T04:41:04;14.90;99.90
1083;DHT22;530;51.448;7.238;2023-05-07T04:43:31;14.90;99.90
1083;DHT22;530;51.448;7.238;2023-05-07T04:45:57;14.90;99.90
1083;DHT22;530;51.448;7.238;2023-05-07T04:48:22;14.90;99.90
1083;DHT22;530;51.448;7.238;2023-05-07T04:50:51;15.00;99.90
1083;DHT22;530;51.448;7.238;2023-05-07T04:53:18;14.90;99.90
1083;DHT22;530;51.448;7.238;2023-05-07T04:55:44;14.90;99.90
1083;DHT22;530;51.448;7.238;2023-05-07T04:58:11;15.00;99.90
1083;DHT22;530;51.448;7.238;2023-05-07T05:00:37;15.00;99.90
1083;DHT22;530;51.448;7.238;2023-05-07T05:03:04;15.00;99.90
1083;DHT22;530;51.448;7.238;2023-05-07T05:05:30;15.00;99.90
1083;DHT22;530;51.448;7.238;2023-05-07T05:07:56;15.00;99.90
1083;DHT22;530;51.448;7.238;2023-05-07T05:10:22;15.00;99.90
1083;DHT22;530;51.448;7.238;2023-05-07T05:12:48;15.00;99.90
1083;DHT22;530;51.448;7.238;2023-05-07T05:15:13;15.10;99.90
1083;DHT22;530;51.448;7.238;2023-05-07T05:17:39;15.10;99.90
1083;DHT22;530;51.448;7.238;2023-05-07T05:20:06;15.10;99.90
1083;DHT22;530;51.448;7.238;2023-05-07T05:22:32;15.10;99.90
1083;DHT22;530;51.448;7.238;2023-05-07T05:24:58;15.10;99.90
1083;DHT22;530;51.448;7.238;2023-05-07T05:27:24;15.10;99.90
1083;DHT22;530;51.448;7.238;2023-05-07T05:29:50;15.10;99.90
1083;DHT22;530;51.448;7.238;2023-05-07T05:32:15;15.20;99.90
1083;DHT22;530;51.448;7.238;2023-05-07T05:34:41;15.20;99.90
1083;DHT22;530;51.448;7.238;2023-05-07T05:37:07;15.20;99.90
1083;DHT22;530;51.448;7.238;2023-05-07T05:39:32;15.20;99.90
1083;DHT22;530;51.448;7.238;2023-05-07T05:41:58;15.20;99.90
1083;DHT22;530;51.448;7.238;2023-05-07T05:44:24;15.30;99.90
1083;DHT22;530;51.448;7.238;2023-05-07T05:46:50;15.40;99.90
1083;DHT22;530;51.448;7.238;2023-05-07T05:49:16;15.40;99.90
1083;DHT22;530;51.448;7.238;2023-05-07T05:51:43;15.50;99.90
1083;DHT22;530;51.448;7.238;2023-05-07T05:54:09;15.50;99.90
1083;DHT22;530;51.448;7.238;2023-05-07T05:56:34;15.60;99.90
1083;DHT22;530;51.448;7.238;2023-05-07T05:59:00;15.70;99.90
1083;DHT22;530;51.448;7.238;2023-05-07T06:01:26;15.70;99.90
1083;DHT22;530;51.448;7.238;2023-05-07T06:03:52;15.80;99.90
1083;DHT22;530;51.448;7.238;2023-05-07T06:06:17;15.80;99.90
1083;DHT22;530;51.448;7.238;2023-05-07T06:08:43;15.90;99.90
1083;DHT22;530;51.448;7.238;2023-05-07T06:11:09;15.90;99.90
1083;DHT22;530;51.448;7.238;2023-05-07T06:13:34;16.00;99.90
1083;DHT22;530;51.448;7.238;2023-05-07T06:16:00;16.00;99.90
1083;DHT22;530;51.448;7.238;2023-05-07T06:18:26;16.00;99.90
1083;DHT22;530;51.448;7.238;2023-05-07T06:20:52;16.00;99.90
1083;DHT22;530;51.448;7.238;2023-05-07T06:23:18;16.00;99.90
1083;DHT22;530;51.448;7.238;2023-05-07T06:25:50;16.00;99.90
1083;DHT22;530;51.448;7.238;2023-05-07T06:28:16;16.00;99.90
1083;DHT22;530;51.448;7.238;2023-05-07T06:30:42;16.00;99.90
1083;DHT22;530;51.448;7.238;2023-05-07T06:33:08;16.10;99.90
1083;DHT22;530;51.448;7.238;2023-05-07T06:35:33;16.10;99.90
1083;DHT22;530;51.448;7.238;2023-05-07T06:38:00;16.10;99.90
1083;DHT22;530;51.448;7.238;2023-05-07T06:40:26;16.10;99.90
1083;DHT22;530;51.448;7.238;2023-05-07T06:42:51;16.00;99.90
1083;DHT22;530;51.448;7.238;2023-05-07T06:45:17;16.00;99.90
1083;DHT22;530;51.448;7.238;2023-05-07T06:47:43;16.10;99.90
1083;DHT22;530;51.448;7.238;2023-05-07T06:50:08;16.10;99.90
1083;DHT22;530;51.448;7.238;2023-05-07T06:52:35;16.10;99.90
1083;DHT22;530;51.448;7.238;2023-05-07T06:55:01;16.10;99.90
1083;DHT22;530;51.448;7.238;2023-05-07T06:57:26;16.20;99.90
1083;DHT22;530;51.448;7.238;2023-05-07T06:59:52;16.30;99.90
1083;DHT22;530;51.448;7.238;2023-05-07T07:02:18;16.30;99.90
1083;DHT22;530;51.448;7.238;2023-05-07T07:04:44;16.30;99.90
1083;DHT22;530;51.448;7.238;2023-05-07T07:07:10;16.30;99.90
1083;DHT22;530;51.448;7.238;2023-05-07T07:09:36;16.40;99.90
1083;DHT22;530;51.448;7.238;2023-05-07T07:12:02;16.40;99.90
1083;DHT22;530;51.448;7.238;2023-05-07T07:14:28;16.40;99.90
1083;DHT22;530;51.448;7.238;2023-05-07T07:16:53;16.40;99.90
1083;DHT22;530;51.448;7.238;2023-05-07T07:19:19;16.50;99.90
1083;DHT22;530;51.448;7.238;2023-05-07T07:21:45;16.50;99.90
1083;DHT22;530;51.448;7.238;2023-05-07T07:24:12;16.50;99.90
1083;DHT22;530;51.448;7.238;2023-05-07T07:26:38;16.50;99.90
1083;DHT22;530;51.448;7.238;2023-05-07T07:29:05;16.60;99.90
1083;DHT22;530;51.448;7.238;2023-05-07T07:31:32;16.60;99.90
1083;DHT22;530;51.448;7.238;2023-05-07T07:33:58;16.60;99.90
1083;DHT22;530;51.448;7.238;2023-05-07T07:36:23;16.60;99.90
1083;DHT22;530;51.448;7.238;2023-05-07T07:38:49;16.60;99.90
1083;DHT22;530;51.448;7.238;2023-05-07T07:41:15;16.60;99.90
1083;DHT22;530;51.448;7.238;2023-05-07T07:43:40;16.60;99.90
1083;DHT22;530;51.448;7.238;2023-05-07T07:46:06;16.70;99.90
1083;DHT22;530;51.448;7.238;2023-05-07T07:48:33;16.70;99.90
1083;DHT22;530;51.448;7.238;2023-05-07T07:50:59;16.80;99.90
1083;DHT22;530;51.448;7.238;2023-05-07T07:53:24;16.80;99.90
1083;DHT22;530;51.448;7.238;2023-05-07T07:55:50;16.80;99.90
1083;DHT22;530;51.448;7.238;2023-05-07T07:58:16;16.90;99.90
1083;DHT22;530;51.448;7.238;2023-05-07T08:00:42;16.90;99.90
1083;DHT22;530;51.448;7.238;2023-05-07T08:03:10;16.90;99.90
1083;DHT22;530;51.448;7.238;2023-05-07T08:05:36;17.00;99.90
1083;DHT22;530;51.448;7.238;2023-05-07T08:08:04;17.00;99.90
1083;DHT22;530;51.448;7.238;2023-05-07T08:10:29;17.10;99.90
1083;DHT22;530;51.448;7.238;2023-05-07T08:12:59;17.00;99.90
1083;DHT22;530;51.448;7.238;2023-05-07T08:15:25;17.00;99.90
1083;DHT22;530;51.448;7.238;2023-05-07T08:17:50;17.10;99.90
1083;DHT22;530;51.448;7.238;2023-05-07T08:20:16;17.10;99.90
1083;DHT22;530;51.448;7.238;2023-05-07T08:22:42;17.20;99.90
1083;DHT22;530;51.448;7.238;2023-05-07T08:25:08;17.20;99.90
1083;DHT22;530;51.448;7.238;2023-05-07T08:27:33;17.20;99.90
1083;DHT22;530;51.448;7.238;2023-05-07T08:29:59;17.30;99.90
1083;DHT22;530;51.448;7.238;2023-05-07T08:32:25;17.30;99.90
1083;DHT22;530;51.448;7.238;2023-05-07T08:34:50;17.40;99.90
1083;DHT22;530;51.448;7.238;2023-05-07T08:37:16;17.40;99.90
1083;DHT22;530;51.448;7.238;2023-05-07T08:39:42;17.40;99.90
1083;DHT22;530;51.448;7.238;2023-05-07T08:42:09;17.50;99.90
1083;DHT22;530;51.448;7.238;2023-05-07T08:44:38;17.60;99.90
1083;DHT22;530;51.448;7.238;2023-05-07T08:47:06;17.60;99.90
1083;DHT22;530;51.448;7.238;2023-05-07T08:49:33;17.70;99.90
1083;DHT22;530;51.448;7.238;2023-05-07T08:51:59;17.80;99.90
1083;DHT22;530;51.448;7.238;2023-05-07T08:54:26;17.80;99.90
1083;DHT22;530;51.448;7.238;2023-05-07T08:56:52;17.90;99.90
1083;DHT22;530;51.448;7.238;2023-05-07T08:59:18;18.00;99.90
1083;DHT22;530;51.448;7.238;2023-05-07T09:01:44;18.00;99.90
1083;DHT22;530;51.448;7.238;2023-05-07T09:04:10;18.10;99.90
1083;DHT22;530;51.448;7.238;2023-05-07T09:06:35;18.10;99.90
1083;DHT22;530;51.448;7.238;2023-05-07T09:09:03;18.20;99.90
1083;DHT22;530;51.448;7.238;2023-05-07T09:11:30;18.30;99.90
1083;DHT22;530;51.448;7.238;2023-05-07T09:13:57;18.30;99.90
1083;DHT22;530;51.448;7.238;2023-05-07T09:16:25;18.40;99.90
1083;DHT22;530;51.448;7.238;2023-05-07T09:18:52;18.40;99.90
1083;DHT22;530;51.448;7.238;2023-05-07T09:21:19;18.50;99.90
1083;DHT22;530;51.448;7.238;2023-05-07T09:23:45;18.50;99.90
1083;DHT22;530;51.448;7.238;2023-05-07T09:26:14;18.60;99.90
1083;DHT22;530;51.448;7.238;2023-05-07T09:28:43;18.70;99.90
1083;DHT22;530;51.448;7.238;2023-05-07T09:31:10;18.80;99.90
1083;DHT22;530;51.448;7.238;2023-05-07T09:33:36;18.90;99.90
1083;DHT22;530;51.448;7.238;2023-05-07T09:36:03;19.00;99.90
1083;DHT22;530;51.448;7.238;2023-05-07T09:38:29;19.10;99.90
1083;DHT22;530;51.448;7.238;2023-05-07T09:41:09;19.20;99.90
1083;DHT22;530;51.448;7.238;2023-05-07T09:43:36;19.30;99.90
1083;DHT22;530;51.448;7.238;2023-05-07T09:46:12;19.30;99.90
1083;DHT22;530;51.448;7.238;2023-05-07T09:48:39;19.40;99.90
1083;DHT22;530;51.448;7.238;2023-05-07T09:51:28;19.40;99.90
1083;DHT22;530;51.448;7.238;2023-05-07T09:53:56;19.40;99.90
1083;DHT22;530;51.448;7.238;2023-05-07T09:56:22;19.50;99.90
1083;DHT22;530;51.448;7.238;2023-05-07T09:58:49;19.60;99.90
1083;DHT22;530;51.448;7.238;2023-05-07T10:01:17;19.70;99.90
1083;DHT22;530;51.448;7.238;2023-05-07T10:03:45;19.70;99.90
1083;DHT22;530;51.448;7.238;2023-05-07T10:06:12;19.70;99.90
1083;DHT22;530;51.448;7.238;2023-05-07T10:08:38;19.90;99.90
1083;DHT22;530;51.448;7.238;2023-05-07T10:11:05;20.00;99.90
1083;DHT22;530;51.448;7.238;2023-05-07T10:13:34;20.10;99.90
1083;DHT22;530;51.448;7.238;2023-05-07T10:16:04;20.20;99.90
1083;DHT22;530;51.448;7.238;2023-05-07T10:18:33;20.40;99.90
1083;DHT22;530;51.448;7.238;2023-05-07T10:21:11;20.50;99.90
1083;DHT22;530;51.448;7.238;2023-05-07T10:23:45;20.60;99.90
1083;DHT22;530;51.448;7.238;2023-05-07T10:26:12;20.60;99.90
1083;DHT22;530;51.448;7.238;2023-05-07T10:28:40;20.50;99.90
1083;DHT22;530;51.448;7.238;2023-05-07T10:33:45;20.60;99.90
1083;DHT22;530;51.448;7.238;2023-05-07T10:36:12;20.50;99.90
1083;DHT22;530;51.448;7.238;2023-05-07T10:38:39;20.50;99.90
1083;DHT22;530;51.448;7.238;2023-05-07T10:41:06;20.50;99.90
1083;DHT22;530;51.448;7.238;2023-05-07T10:43:40;20.50;99.90
1083;DHT22;530;51.448;7.238;2023-05-07T10:46:10;20.50;99.90
1083;DHT22;530;51.448;7.238;2023-05-07T10:51:35;20.50;99.90
1083;DHT22;530;51.448;7.238;2023-05-07T10:56:36;20.50;99.90
1083;DHT22;530;51.448;7.238;2023-05-07T11:01:59;20.50;99.90
1083;DHT22;530;51.448;7.238;2023-05-07T11:04:27;20.50;99.90
1083;DHT22;530;51.448;7.238;2023-05-07T11:07:26;20.50;99.90
1083;DHT22;530;51.448;7.238;2023-05-07T11:15:07;20.30;99.90
1083;DHT22;530;51.448;7.238;2023-05-07T11:17:34;20.30;99.90
1083;DHT22;530;51.448;7.238;2023-05-07T11:20:01;20.30;99.90
1083;DHT22;530;51.448;7.238;2023-05-07T11:24:57;20.20;99.90
1083;DHT22;530;51.448;7.238;2023-05-07T11:27:25;20.20;99.90
1083;DHT22;530;51.448;7.238;2023-05-07T11:29:51;20.20;99.90
1083;DHT22;530;51.448;7.238;2023-05-07T11:32:23;20.10;99.90
1083;DHT22;530;51.448;7.238;2023-05-07T11:34:52;20.10;99.90
1083;DHT22;530;51.448;7.238;2023-05-07T11:37:18;20.10;99.90
1083;DHT22;530;51.448;7.238;2023-05-07T11:39:44;20.10;99.90
1083;DHT22;530;51.448;7.238;2023-05-07T11:42:49;20.10;99.90
1083;DHT22;530;51.448;7.238;2023-05-07T11:45:23;20.10;99.90
1083;DHT22;530;51.448;7.238;2023-05-07T11:47:50;20.00;99.90
1083;DHT22;530;51.448;7.238;2023-05-07T11:50:16;20.00;99.90
1083;DHT22;530;51.448;7.238;2023-05-07T11:52:50;20.00;99.90
1083;DHT22;530;51.448;7.238;2023-05-07T11:55:18;20.00;99.90
1083;DHT22;530;51.448;7.238;2023-05-07T11:57:44;20.00;99.90
1083;DHT22;530;51.448;7.238;2023-05-07T12:00:11;20.00;99.90
1083;DHT22;530;51.448;7.238;2023-05-07T12:02:36;20.00;99.90
1083;DHT22;530;51.448;7.238;2023-05-07T12:05:02;20.00;99.90
1083;DHT22;530;51.448;7.238;2023-05-07T12:07:28;20.10;99.90
1083;DHT22;530;51.448;7.238;2023-05-07T12:09:53;20.10;99.90
1083;DHT22;530;51.448;7.238;2023-05-07T12:12:19;20.20;99.90
1083;DHT22;530;51.448;7.238;2023-05-07T12:14:45;20.20;99.90
1083;DHT22;530;51.448;7.238;2023-05-07T12:17:12;20.20;99.90
1083;DHT22;530;51.448;7.238;2023-05-07T12:19:39;20.20;99.90
1083;DHT22;530;51.448;7.238;2023-05-07T12:22:07;20.10;99.90
1083;DHT22;530;51.448;7.238;2023-05-07T12:25:03;20.10;99.90
1083;DHT22;530;51.448;7.238;2023-05-07T12:27:28;20.10;99.90
1083;DHT22;530;51.448;7.238;2023-05-07T12:29:54;20.10;99.90
1083;DHT22;530;51.448;7.238;2023-05-07T12:32:22;20.10;99.90
1083;DHT22;530;51.448;7.238;2023-05-07T12:34:51;20.00;99.90
1083;DHT22;530;51.448;7.238;2023-05-07T12:37:23;20.10;99.90
1083;DHT22;530;51.448;7.238;2023-05-07T12:40:06;20.10;99.90
1083;DHT22;530;51.448;7.238;2023-05-07T12:42:37;20.00;99.90
1083;DHT22;530;51.448;7.238;2023-05-07T12:45:20;20.00;99.90
1083;DHT22;530;51.448;7.238;2023-05-07T12:47:47;20.00;99.90
1083;DHT22;530;51.448;7.238;2023-05-07T12:50:16;20.00;99.90
1083;DHT22;530;51.448;7.238;2023-05-07T12:52:43;19.90;99.90
1083;DHT22;530;51.448;7.238;2023-05-07T12:55:13;19.90;99.90
1083;DHT22;530;51.448;7.238;2023-05-07T12:57:48;19.90;99.90
1083;DHT22;530;51.448;7.238;2023-05-07T13:00:16;19.90;99.90
1083;DHT22;530;51.448;7.238;2023-05-07T13:02:43;19.90;99.90
1083;DHT22;530;51.448;7.238;2023-05-07T13:05:11;19.80;99.90
1083;DHT22;530;51.448;7.238;2023-05-07T13:07:37;19.80;99.90
1083;DHT22;530;51.448;7.238;2023-05-07T13:10:04;19.70;99.90
1083;DHT22;530;51.448;7.238;2023-05-07T13:12:29;19.70;99.90
1083;DHT22;530;51.448;7.238;2023-05-07T13:14:55;19.70;99.90
1083;DHT22;530;51.448;7.238;2023-05-07T13:17:21;19.70;99.90
1083;DHT22;530;51.448;7.238;2023-05-07T13:19:47;19.70;99.90
1083;DHT22;530;51.448;7.238;2023-05-07T13:22:12;19.60;99.90
1083;DHT22;530;51.448;7.238;2023-05-07T13:24:38;19.60;99.90
1083;DHT22;530;51.448;7.238;2023-05-07T13:27:07;19.60;99.90
1083;DHT22;530;51.448;7.238;2023-05-07T13:29:32;19.60;99.90
1083;DHT22;530;51.448;7.238;2023-05-07T13:31:59;19.50;99.90
1083;DHT22;530;51.448;7.238;2023-05-07T13:34:26;19.50;99.90
1083;DHT22;530;51.448;7.238;2023-05-07T13:36:51;19.40;99.90
1083;DHT22;530;51.448;7.238;2023-05-07T13:39:17;19.40;99.90
1083;DHT22;530;51.448;7.238;2023-05-07T13:41:43;19.40;99.90
1083;DHT22;530;51.448;7.238;2023-05-07T13:44:08;19.40;99.90
1083;DHT22;530;51.448;7.238;2023-05-07T13:46:35;19.30;99.90
1083;DHT22;530;51.448;7.238;2023-05-07T13:49:01;19.30;99.90
1083;DHT22;530;51.448;7.238;2023-05-07T13:51:26;19.30;99.90
1083;DHT22;530;51.448;7.238;2023-05-07T13:53:52;19.30;99.90
1083;DHT22;530;51.448;7.238;2023-05-07T13:56:18;19.30;99.90
1083;DHT22;530;51.448;7.238;2023-05-07T13:58:44;19.30;99.90
1083;DHT22;530;51.448;7.238;2023-05-07T14:01:09;19.20;99.90
1083;DHT22;530;51.448;7.238;2023-05-07T14:03:36;19.20;99.90
1083;DHT22;530;51.448;7.238;2023-05-07T14:06:03;19.20;99.90
1083;DHT22;530;51.448;7.238;2023-05-07T14:08:29;19.20;99.90
1083;DHT22;530;51.448;7.238;2023-05-07T14:10:55;19.20;99.90
1083;DHT22;530;51.448;7.238;2023-05-07T14:13:21;19.20;99.90
1083;DHT22;530;51.448;7.238;2023-05-07T14:15:46;19.20;99.90
1083;DHT22;530;51.448;7.238;2023-05-07T14:18:14;19.10;99.90
1083;DHT22;530;51.448;7.238;2023-05-07T14:20:40;19.10;99.90
1083;DHT22;530;51.448;7.238;2023-05-07T14:23:06;19.10;99.90
1083;DHT22;530;51.448;7.238;2023-05-07T14:25:32;19.10;99.90
1083;DHT22;530;51.448;7.238;2023-05-07T14:27:57;19.10;99.90
1083;DHT22;530;51.448;7.238;2023-05-07T14:30:23;19.10;99.90
1083;DHT22;530;51.448;7.238;2023-05-07T14:32:50;19.10;99.90
1083;DHT22;530;51.448;7.238;2023-05-07T14:35:16;19.00;99.90
1083;DHT22;530;51.448;7.238;2023-05-07T14:37:43;19.00;99.90
1083;DHT22;530;51.448;7.238;2023-05-07T14:40:09;19.00;99.90
1083;DHT22;530;51.448;7.238;2023-05-07T14:42:35;19.00;99.90
1083;DHT22;530;51.448;7.238;2023-05-07T14:45:01;19.00;99.90
1083;DHT22;530;51.448;7.238;2023-05-07T14:47:27;19.00;99.90
1083;DHT22;530;51.448;7.238;2023-05-07T14:49:53;19.00;99.90
1083;DHT22;530;51.448;7.238;2023-05-07T14:52:20;19.00;99.90
1083;DHT22;530;51.448;7.238;2023-05-07T14:54:46;19.00;99.90
1083;DHT22;530;51.448;7.238;2023-05-07T14:57:14;19.00;99.90
1083;DHT22;530;51.448;7.238;2023-05-07T14:59:42;19.00;99.90
1083;DHT22;530;51.448;7.238;2023-05-07T15:02:08;19.00;99.90
1083;DHT22;530;51.448;7.238;2023-05-07T15:04:34;19.00;99.90
1083;DHT22;530;51.448;7.238;2023-05-07T15:07:00;19.00;99.90
1083;DHT22;530;51.448;7.238;2023-05-07T15:09:26;19.00;99.90
1083;DHT22;530;51.448;7.238;2023-05-07T15:11:52;19.00;99.90
1083;DHT22;530;51.448;7.238;2023-05-07T15:14:18;19.00;99.90
1083;DHT22;530;51.448;7.238;2023-05-07T15:16:44;19.00;99.90
1083;DHT22;530;51.448;7.238;2023-05-07T15:19:11;19.00;99.90
1083;DHT22;530;51.448;7.238;2023-05-07T15:21:37;19.00;99.90
1083;DHT22;530;51.448;7.238;2023-05-07T15:24:03;19.00;99.90
1083;DHT22;530;51.448;7.238;2023-05-07T15:26:29;18.90;99.90
1083;DHT22;530;51.448;7.238;2023-05-07T15:28:55;18.90;99.90
1083;DHT22;530;51.448;7.238;2023-05-07T15:31:25;18.90;99.90
1083;DHT22;530;51.448;7.238;2023-05-07T15:33:51;18.80;99.90
1083;DHT22;530;51.448;7.238;2023-05-07T15:36:21;18.80;99.90
1083;DHT22;530;51.448;7.238;2023-05-07T15:38:47;18.70;99.90
1083;DHT22;530;51.448;7.238;2023-05-07T15:41:13;18.70;99.90
1083;DHT22;530;51.448;7.238;2023-05-07T15:43:47;18.70;99.90
1083;DHT22;530;51.448;7.238;2023-05-07T15:46:17;18.70;99.90
1083;DHT22;530;51.448;7.238;2023-05-07T15:48:43;18.60;99.90
1083;DHT22;530;51.448;7.238;2023-05-07T15:51:09;18.60;99.90
1083;DHT22;530;51.448;7.238;2023-05-07T15:53:35;18.60;99.90
1083;DHT22;530;51.448;7.238;2023-05-07T15:56:02;18.60;99.90
1083;DHT22;530;51.448;7.238;2023-05-07T15:58:27;18.60;99.90
1083;DHT22;530;51.448;7.238;2023-05-07T16:00:53;18.60;99.90
1083;DHT22;530;51.448;7.238;2023-05-07T16:03:19;18.60;99.90
1083;DHT22;530;51.448;7.238;2023-05-07T16:05:46;18.70;99.90
1083;DHT22;530;51.448;7.238;2023-05-07T16:08:12;18.70;99.90
1083;DHT22;530;51.448;7.238;2023-05-07T16:10:38;18.70;99.90
1083;DHT22;530;51.448;7.238;2023-05-07T16:13:03;18.70;99.90
1083;DHT22;530;51.448;7.238;2023-05-07T16:15:29;18.70;99.90
1083;DHT22;530;51.448;7.238;2023-05-07T16:17:55;18.60;99.90
1083;DHT22;530;51.448;7.238;2023-05-07T16:20:25;18.70;99.90
1083;DHT22;530;51.448;7.238;2023-05-07T16:22:54;18.70;99.90
1083;DHT22;530;51.448;7.238;2023-05-07T16:25:19;18.70;99.90
1083;DHT22;530;51.448;7.238;2023-05-07T16:27:45;18.70;99.90
1083;DHT22;530;51.448;7.238;2023-05-07T16:30:11;18.70;99.90
1083;DHT22;530;51.448;7.238;2023-05-07T16:32:37;18.70;99.90